createdAt,value
2022-09-13T00:00:52.482Z,99.90
2022-09-13T00:03:20.562Z,99.90
2022-09-13T00:05:48.289Z,99.90
2022-09-13T00:08:15.706Z,99.90
2022-09-13T00:10:43.833Z,99.90
2022-09-13T00:13:12.065Z,99.90
2022-09-13T00:15:44.557Z,99.90
2022-09-13T00:18:11.516Z,99.90
2022-09-13T00:20:38.596Z,99.90
2022-09-13T00:23:05.379Z,99.90
2022-09-13T00:25:32.229Z,99.90
2022-09-13T00:27:58.974Z,99.90
2022-09-13T00:30:25.705Z,99.90
2022-09-13T00:32:52.426Z,99.90
2022-09-13T00:35:19.364Z,99.90
2022-09-13T00:37:46.112Z,99.90
2022-09-13T00:40:13.063Z,99.90
2022-09-13T00:42:39.990Z,99.90
2022-09-13T00:45:17.071Z,99.90
2022-09-13T00:47:53.089Z,99.90
2022-09-13T00:50:43.136Z,99.90
2022-09-13T00:53:30.137Z,99.90
2022-09-13T00:56:03.749Z,99.90
2022-09-13T00:58:44.336Z,99.90
2022-09-13T01:01:14.516Z,99.90
2022-09-13T01:03:43.846Z,99.90
2022-09-13T01:06:20.526Z,99.90
2022-09-13T01:08:51.986Z,99.90
2022-09-13T01:11:32.647Z,99.90
2022-09-13T01:13:59.888Z,99.90
2022-09-13T01:16:27.067Z,99.90
2022-09-13T01:18:53.932Z,99.90
2022-09-13T01:21:45.204Z,99.90
2022-09-13T01:24:47.834Z,99.90
2022-09-13T01:27:14.677Z,99.90
2022-09-13T01:30:23.682Z,99.90
2022-09-13T01:33:00.524Z,99.90
2022-09-13T01:35:27.292Z,99.90
2022-09-13T01:37:56.557Z,99.90
2022-09-13T01:40:39.410Z,99.90
2022-09-13T01:43:39.296Z,99.90
2022-09-13T01:46:25.193Z,99.90
2022-09-13T01:49:18.968Z,99.90
2022-09-13T01:52:05.875Z,99.90
2022-09-13T01:54:56.641Z,99.90
2022-09-13T01:57:29.125Z,99.90
2022-09-13T02:00:06.862Z,99.90
2022-09-13T02:03:13.564Z,99.90
2022-09-13T02:05:55.277Z,99.90
2022-09-13T02:08:32.604Z,99.90
2022-09-13T02:11:14.819Z,99.90
2022-09-13T02:13:52.044Z,99.90
2022-09-13T02:16:27.741Z,99.90
2022-09-13T02:18:59.192Z,99.90
2022-09-13T02:21:39.215Z,99.90
2022-09-13T02:24:13.939Z,99.90
2022-09-13T02:26:41.809Z,99.90
2022-09-13T02:29:13.064Z,99.90
2022-09-13T02:31:46.691Z,99.90
2022-09-13T02:34:27.939Z,99.90
2022-09-13T02:36:56.179Z,99.90
2022-09-13T02:39:27.185Z,99.90
2022-09-13T02:42:10.473Z,99.90
2022-09-13T02:44:46.032Z,99.90
2022-09-13T02:47:31.688Z,99.90
2022-09-13T02:50:25.031Z,99.90
2022-09-13T02:53:33.978Z,99.90
2022-09-13T02:56:15.826Z,99.90
2022-09-13T02:58:59.604Z,99.90
2022-09-13T03:01:26.699Z,99.90
2022-09-13T03:03:56.962Z,99.90
2022-09-13T03:06:28.733Z,99.90
2022-09-13T03:08:58.213Z,99.90
2022-09-13T03:11:43.070Z,99.90
2022-09-13T03:14:36.609Z,99.90
2022-09-13T03:17:28.110Z,99.90
2022-09-13T03:20:01.543Z,99.90
2022-09-13T03:22:54.717Z,99.90
2022-09-13T03:25:30.312Z,99.90
2022-09-13T03:28:26.141Z,99.90
2022-09-13T03:31:10.813Z,99.90
2022-09-13T03:34:04.264Z,99.90
2022-09-13T03:36:42.876Z,99.90
2022-09-13T03:39:14.364Z,99.90
2022-09-13T03:41:46.892Z,99.90
2022-09-13T03:44:18.387Z,99.90
2022-09-13T03:46:48.937Z,99.90
2022-09-13T03:49:18.056Z,99.90
2022-09-13T03:51:47.890Z,99.90
2022-09-13T03:54:36.755Z,99.90
2022-09-13T03:57:09.100Z,99.90
2022-09-13T03:59:38.740Z,99.90
2022-09-13T04:02:09.830Z,99.90
2022-09-13T04:04:36.656Z,99.90
2022-09-13T04:07:04.246Z,99.90
2022-09-13T04:09:31.900Z,99.90
2022-09-13T04:11:58.722Z,99.90
2022-09-13T04:14:27.017Z,99.90
2022-09-13T04:16:55.249Z,99.90
2022-09-13T04:19:22.640Z,99.90
2022-09-13T04:21:50.478Z,99.90
2022-09-13T04:24:18.221Z,99.90
2022-09-13T04:26:49.088Z,99.90
2022-09-13T04:29:15.911Z,99.90
2022-09-13T04:31:42.679Z,99.90
2022-09-13T04:34:09.427Z,99.90
2022-09-13T04:36:36.149Z,99.90
2022-09-13T04:39:03.336Z,99.90
2022-09-13T04:41:30.903Z,99.90
2022-09-13T04:43:57.716Z,99.90
2022-09-13T04:46:24.552Z,99.90
2022-09-13T04:48:52.184Z,99.90
2022-09-13T04:51:19.793Z,99.90
2022-09-13T04:53:46.728Z,99.90
2022-09-13T04:56:15.232Z,99.90
2022-09-13T04:58:42.172Z,99.90
2022-09-13T05:01:10.949Z,99.90
2022-09-13T05:03:38.049Z,99.90
2022-09-13T05:06:06.708Z,99.90
2022-09-13T05:08:34.285Z,99.90
2022-09-13T05:11:01.329Z,99.90
2022-09-13T05:13:28.614Z,99.90
2022-09-13T05:16:00.813Z,99.90
2022-09-13T05:18:32.359Z,99.90
2022-09-13T05:21:01.045Z,99.90
2022-09-13T05:23:29.382Z,99.90
2022-09-13T05:25:58.389Z,99.90
2022-09-13T05:28:26.705Z,99.90
2022-09-13T05:30:59.578Z,99.90
2022-09-13T05:33:31.907Z,99.90
2022-09-13T05:35:58.848Z,99.90
2022-09-13T05:38:26.038Z,99.90
2022-09-13T05:40:58.198Z,99.90
2022-09-13T05:43:26.596Z,99.90
2022-09-13T05:46:12.671Z,99.90
2022-09-13T05:48:40.161Z,99.90
2022-09-13T05:51:11.558Z,99.90
2022-09-13T05:53:39.996Z,99.90
2022-09-13T05:56:16.402Z,99.90
2022-09-13T05:58:46.319Z,99.90
2022-09-13T06:01:13.958Z,99.90
2022-09-13T06:03:41.490Z,99.90
2022-09-13T06:06:09.995Z,99.90
2022-09-13T06:08:37.124Z,99.90
2022-09-13T06:11:09.156Z,99.90
2022-09-13T06:13:36.539Z,99.90
2022-09-13T06:16:09.771Z,99.90
2022-09-13T06:18:36.650Z,99.90
2022-09-13T06:21:06.380Z,99.90
2022-09-13T06:23:33.579Z,99.90
2022-09-13T06:26:04.244Z,99.90
2022-09-13T06:28:35.379Z,99.90
2022-09-13T06:31:09.459Z,99.90
2022-09-13T06:33:37.864Z,99.90
2022-09-13T06:36:07.848Z,99.90
2022-09-13T06:38:34.858Z,99.90
2022-09-13T06:41:13.301Z,99.90
2022-09-13T06:43:41.174Z,99.90
2022-09-13T06:46:10.747Z,99.90
2022-09-13T06:48:39.521Z,99.90
2022-09-13T06:51:12.372Z,99.90
2022-09-13T06:53:41.096Z,99.90
2022-09-13T06:56:11.367Z,99.90
2022-09-13T06:58:39.038Z,99.90
2022-09-13T07:01:13.377Z,99.90
2022-09-13T07:03:45.557Z,99.90
2022-09-13T07:06:20.260Z,99.90
2022-09-13T07:08:51.178Z,99.90
2022-09-13T07:11:19.986Z,99.90
2022-09-13T07:13:57.737Z,99.90
2022-09-13T07:16:29.346Z,99.90
2022-09-13T07:18:57.963Z,99.90
2022-09-13T07:21:24.992Z,99.90
2022-09-13T07:23:52.954Z,99.90
2022-09-13T07:26:20.365Z,99.90
2022-09-13T07:28:49.573Z,99.90
2022-09-13T07:31:20.567Z,99.90
2022-09-13T07:33:49.186Z,99.90
2022-09-13T07:36:15.912Z,99.90
2022-09-13T07:38:45.307Z,99.90
2022-09-13T07:41:14.904Z,99.90
2022-09-13T07:43:41.994Z,99.90
2022-09-13T07:46:17.924Z,99.90
2022-09-13T07:48:46.170Z,99.90
2022-09-13T07:51:18.641Z,99.90
2022-09-13T07:53:45.892Z,99.90
2022-09-13T07:56:14.113Z,99.90
2022-09-13T07:58:42.739Z,99.90
2022-09-13T08:01:21.433Z,99.90
2022-09-13T08:04:03.159Z,99.90
2022-09-13T08:06:32.476Z,99.90
2022-09-13T08:08:59.353Z,99.90
2022-09-13T08:11:31.091Z,99.90
2022-09-13T08:13:58.368Z,99.90
2022-09-13T08:16:26.411Z,99.90
2022-09-13T08:18:56.187Z,99.90
2022-09-13T08:21:24.358Z,99.90
2022-09-13T08:24:00.435Z,99.90
2022-09-13T08:26:32.401Z,99.90
2022-09-13T08:29:01.386Z,99.90
2022-09-13T08:31:29.260Z,99.90
2022-09-13T08:33:56.658Z,99.90
2022-09-13T08:36:26.290Z,99.90
2022-09-13T08:38:57.705Z,99.90
2022-09-13T08:41:45.135Z,99.90
2022-09-13T08:44:31.057Z,99.90
2022-09-13T08:47:22.115Z,99.90
2022-09-13T08:49:52.326Z,99.90
2022-09-13T08:53:04.446Z,99.90
2022-09-13T08:55:42.833Z,99.90
2022-09-13T08:58:19.839Z,99.90
2022-09-13T09:00:57.331Z,99.90
2022-09-13T09:03:46.803Z,99.90
2022-09-13T09:06:15.939Z,99.90
2022-09-13T09:08:49.734Z,99.90
2022-09-13T09:11:50.441Z,99.90
2022-09-13T09:14:35.530Z,99.90
2022-09-13T09:17:20.934Z,99.90
2022-09-13T09:19:54.478Z,99.90
2022-09-13T09:22:23.262Z,99.90
2022-09-13T09:24:58.139Z,99.90
2022-09-13T09:27:25.862Z,99.90
2022-09-13T09:29:58.082Z,99.90
2022-09-13T09:32:54.235Z,99.90
2022-09-13T09:35:45.413Z,99.90
2022-09-13T09:38:18.239Z,99.90
2022-09-13T09:40:45.658Z,99.90
2022-09-13T09:43:24.073Z,99.90
2022-09-13T09:45:53.959Z,99.90
2022-09-13T09:48:29.006Z,99.90
2022-09-13T09:51:01.215Z,99.90
2022-09-13T09:53:43.147Z,99.90
2022-09-13T09:56:18.775Z,99.90
2022-09-13T09:58:48.316Z,99.90
2022-09-13T10:01:25.476Z,99.90
2022-09-13T10:04:10.720Z,99.90
2022-09-13T10:06:40.350Z,99.90
2022-09-13T10:09:16.760Z,99.90
2022-09-13T10:11:52.993Z,99.90
2022-09-13T10:14:38.590Z,99.90
2022-09-13T10:17:24.060Z,99.90
2022-09-13T10:20:14.301Z,99.90
2022-09-13T10:22:42.888Z,99.90
2022-09-13T10:25:22.680Z,99.90
2022-09-13T10:27:55.442Z,99.90
2022-09-13T10:30:36.789Z,99.90
2022-09-13T10:33:04.856Z,99.90
2022-09-13T10:35:32.555Z,99.90
2022-09-13T10:37:59.497Z,99.90
2022-09-13T10:40:31.293Z,99.90
2022-09-13T10:42:59.847Z,99.90
2022-09-13T10:45:29.727Z,99.90
2022-09-13T10:48:12.935Z,99.90
2022-09-13T10:50:39.963Z,99.90
2022-09-13T10:53:31.485Z,99.90
2022-09-13T10:55:58.194Z,99.90
2022-09-13T10:58:24.918Z,99.90
2022-09-13T11:01:24.513Z,99.90
2022-09-13T11:04:16.084Z,99.90
2022-09-13T11:06:48.645Z,99.90
2022-09-13T11:09:32.677Z,99.90
2022-09-13T11:12:14.423Z,99.90
2022-09-13T11:14:47.165Z,99.90
2022-09-13T11:17:51.728Z,99.80
2022-09-13T11:20:38.822Z,99.70
2022-09-13T11:23:24.646Z,99.30
2022-09-13T11:26:06.315Z,98.90
2022-09-13T11:28:45.112Z,99.90
2022-09-13T11:31:33.920Z,99.50
2022-09-13T11:34:16.038Z,98.50
2022-09-13T11:37:00.096Z,99.80
2022-09-13T11:39:39.470Z,99.30
2022-09-13T11:42:27.555Z,99.70
2022-09-13T11:45:18.158Z,99.60
2022-09-13T11:48:11.669Z,98.40
2022-09-13T11:51:08.851Z,97.70
2022-09-13T11:54:06.943Z,98.20
2022-09-13T11:56:38.443Z,98.50
2022-09-13T11:59:35.396Z,98.80
2022-09-13T12:02:14.254Z,98.30
2022-09-13T12:05:18.040Z,98.20
2022-09-13T12:08:20.247Z,97.90
2022-09-13T12:10:53.500Z,98.20
2022-09-13T12:13:49.421Z,98.30
2022-09-13T12:16:44.770Z,98.20
2022-09-13T12:19:16.735Z,98.70
2022-09-13T12:21:45.682Z,98.10
2022-09-13T12:24:28.223Z,98.00
2022-09-13T12:27:02.718Z,97.60
2022-09-13T12:29:31.033Z,98.20
2022-09-13T12:32:02.198Z,98.20
2022-09-13T12:34:54.261Z,97.60
2022-09-13T12:37:51.836Z,96.70
2022-09-13T12:41:05.965Z,97.20
2022-09-13T12:43:50.781Z,98.00
2022-09-13T12:46:37.607Z,97.80
2022-09-13T12:49:32.709Z,98.00
2022-09-13T12:52:20.728Z,97.90
2022-09-13T12:55:06.344Z,97.60
2022-09-13T12:57:53.932Z,96.50
2022-09-13T13:00:48.159Z,97.00
2022-09-13T13:03:19.256Z,97.00
2022-09-13T13:05:50.461Z,97.20
2022-09-13T13:08:20.297Z,97.00
2022-09-13T13:11:03.510Z,97.20
2022-09-13T13:13:39.488Z,97.30
2022-09-13T13:16:34.185Z,97.50
2022-09-13T13:19:06.664Z,97.60
2022-09-13T13:21:39.049Z,97.30
2022-09-13T13:24:18.740Z,97.10
2022-09-13T13:26:50.529Z,97.30
2022-09-13T13:29:29.981Z,97.80
2022-09-13T13:32:01.358Z,97.90
2022-09-13T13:34:39.048Z,97.90
2022-09-13T13:37:05.693Z,98.20
2022-09-13T13:39:34.377Z,97.60
2022-09-13T13:42:11.815Z,97.70
2022-09-13T13:44:38.555Z,97.90
2022-09-13T13:47:08.407Z,98.60
2022-09-13T13:49:44.201Z,98.60
2022-09-13T13:52:13.949Z,98.30
2022-09-13T13:54:40.666Z,99.10
2022-09-13T13:57:29.172Z,99.30
2022-09-13T14:00:17.174Z,98.90
2022-09-13T14:02:50.107Z,99.30
2022-09-13T14:05:30.952Z,98.70
2022-09-13T14:08:19.351Z,98.70
2022-09-13T14:11:11.286Z,98.40
2022-09-13T14:13:56.659Z,98.70
2022-09-13T14:16:47.046Z,99.20
2022-09-13T14:19:31.281Z,99.20
2022-09-13T14:22:19.687Z,99.60
2022-09-13T14:24:48.834Z,99.40
2022-09-13T14:27:22.222Z,99.30
2022-09-13T14:29:54.122Z,99.70
2022-09-13T14:32:45.038Z,99.00
2022-09-13T14:35:35.639Z,99.50
2022-09-13T14:38:22.689Z,99.20
2022-09-13T14:40:57.867Z,99.70
2022-09-13T14:43:27.659Z,99.90
2022-09-13T14:46:13.768Z,99.90
2022-09-13T14:48:58.154Z,99.90
2022-09-13T14:51:50.341Z,99.90
2022-09-13T14:54:37.031Z,99.90
2022-09-13T14:57:06.912Z,99.90
2022-09-13T14:59:42.738Z,99.90
2022-09-13T15:02:20.201Z,99.90
2022-09-13T15:04:56.619Z,99.90
2022-09-13T15:07:33.556Z,99.90
2022-09-13T15:10:12.455Z,99.90
2022-09-13T15:13:06.402Z,99.90
2022-09-13T15:15:43.779Z,99.90
2022-09-13T15:18:20.120Z,99.90
2022-09-13T15:20:55.391Z,99.90
2022-09-13T15:23:49.675Z,99.90
2022-09-13T15:26:27.696Z,99.90
2022-09-13T15:29:03.285Z,99.90
2022-09-13T15:31:31.543Z,99.90
2022-09-13T15:34:17.367Z,99.90
2022-09-13T15:36:45.829Z,99.90
2022-09-13T15:39:18.463Z,99.90
2022-09-13T15:42:11.559Z,99.90
2022-09-13T15:44:42.402Z,99.90
2022-09-13T15:47:13.981Z,99.90
2022-09-13T15:49:41.309Z,99.90
2022-09-13T15:52:08.373Z,99.90
2022-09-13T15:54:38.346Z,99.90
2022-09-13T15:57:20.802Z,99.90
2022-09-13T15:59:47.562Z,99.90
2022-09-13T16:02:23.191Z,99.90
2022-09-13T16:04:50.156Z,99.90
2022-09-13T16:07:17.750Z,99.90
2022-09-13T16:09:45.385Z,99.90
2022-09-13T16:12:12.317Z,99.90
2022-09-13T16:14:39.150Z,99.90
2022-09-13T16:17:10.918Z,99.90
2022-09-13T16:19:37.671Z,99.90
2022-09-13T16:22:04.682Z,99.90
2022-09-13T16:24:31.538Z,99.90
2022-09-13T16:27:01.578Z,99.90
2022-09-13T16:29:29.525Z,99.90
2022-09-13T16:31:57.620Z,99.90
2022-09-13T16:34:24.380Z,99.90
2022-09-13T16:36:51.101Z,99.90
2022-09-13T16:39:18.515Z,99.90
2022-09-13T16:41:45.506Z,99.90
2022-09-13T16:44:14.122Z,99.90
2022-09-13T16:46:41.187Z,99.90
2022-09-13T16:49:08.332Z,99.90
2022-09-13T16:51:35.157Z,99.90
2022-09-13T16:54:02.803Z,99.90
2022-09-13T16:56:30.405Z,99.90
2022-09-13T16:58:57.417Z,99.90
2022-09-13T17:01:27.536Z,99.90
2022-09-13T17:03:55.916Z,99.90
2022-09-13T17:06:24.409Z,99.90
2022-09-13T17:09:02.036Z,99.90
2022-09-13T17:11:31.982Z,99.90
2022-09-13T17:14:00.191Z,99.90
2022-09-13T17:16:31.903Z,99.90
2022-09-13T17:19:03.848Z,99.90
2022-09-13T17:21:31.306Z,99.90
2022-09-13T17:23:58.049Z,99.90
2022-09-13T17:26:24.916Z,99.90
2022-09-13T17:28:52.627Z,99.90
2022-09-13T17:31:20.142Z,99.90
2022-09-13T17:33:47.100Z,99.90
2022-09-13T17:36:15.000Z,99.90
2022-09-13T17:38:42.799Z,99.90
2022-09-13T17:41:11.127Z,99.90
2022-09-13T17:43:39.477Z,99.90
2022-09-13T17:46:08.179Z,99.90
2022-09-13T17:48:35.204Z,99.90
2022-09-13T17:51:08.484Z,99.90
2022-09-13T17:53:58.854Z,99.90
2022-09-13T17:56:31.320Z,99.90
2022-09-13T17:59:13.661Z,99.90
2022-09-13T18:01:45.976Z,99.90
2022-09-13T18:04:14.785Z,99.90
2022-09-13T18:06:44.642Z,99.90
2022-09-13T18:09:13.889Z,99.90
2022-09-13T18:11:41.208Z,99.90
2022-09-13T18:14:14.840Z,99.90
2022-09-13T18:16:42.701Z,99.90
2022-09-13T18:19:09.768Z,99.90
2022-09-13T18:21:36.778Z,99.90
2022-09-13T18:24:03.689Z,99.90
2022-09-13T18:26:32.636Z,99.90
2022-09-13T18:29:03.274Z,99.90
2022-09-13T18:31:32.209Z,99.90
2022-09-13T18:34:01.438Z,99.90
2022-09-13T18:36:30.072Z,99.90
2022-09-13T18:38:57.272Z,99.90
2022-09-13T18:41:26.973Z,99.90
2022-09-13T18:43:56.003Z,99.90
2022-09-13T18:46:25.469Z,99.90
2022-09-13T18:48:54.873Z,99.90
2022-09-13T18:51:24.207Z,99.90
2022-09-13T18:53:51.432Z,99.90
2022-09-13T18:56:20.568Z,99.90
2022-09-13T18:58:47.769Z,99.90
2022-09-13T19:01:17.465Z,99.90
2022-09-13T19:04:11.872Z,99.90
2022-09-13T19:06:43.009Z,99.90
2022-09-13T19:09:10.555Z,99.90
2022-09-13T19:11:46.711Z,99.90
2022-09-13T19:14:23.344Z,99.90
2022-09-13T19:16:51.545Z,99.90
2022-09-13T19:19:19.026Z,99.90
2022-09-13T19:21:46.110Z,99.90
2022-09-13T19:24:18.407Z,99.90
2022-09-13T19:26:46.874Z,99.90
2022-09-13T19:29:15.744Z,99.90
2022-09-13T19:31:44.858Z,99.90
2022-09-13T19:34:12.268Z,99.90
2022-09-13T19:36:39.712Z,99.90
2022-09-13T19:39:07.843Z,99.90
2022-09-13T19:41:36.004Z,99.90
2022-09-13T19:44:03.745Z,99.90
2022-09-13T19:46:37.277Z,99.90
2022-09-13T19:49:05.005Z,99.90
2022-09-13T19:51:37.541Z,99.90
2022-09-13T19:54:05.810Z,99.90
2022-09-13T19:56:35.289Z,99.90
2022-09-13T19:59:02.949Z,99.90
2022-09-13T20:01:35.887Z,99.90
2022-09-13T20:04:05.833Z,99.90
2022-09-13T20:06:38.616Z,99.90
2022-09-13T20:09:06.364Z,99.90
2022-09-13T20:11:33.564Z,99.90
2022-09-13T20:14:01.565Z,99.90
2022-09-13T20:16:32.214Z,99.90
2022-09-13T20:18:59.411Z,99.90
2022-09-13T20:21:27.948Z,99.90
2022-09-13T20:24:00.690Z,99.90
2022-09-13T20:26:27.694Z,99.90
2022-09-13T20:29:00.010Z,99.90
2022-09-13T20:31:28.259Z,99.90
2022-09-13T20:34:00.547Z,99.90
2022-09-13T20:36:29.609Z,99.90
2022-09-13T20:39:02.340Z,99.90
2022-09-13T20:41:31.636Z,99.90
2022-09-13T20:44:01.751Z,99.90
2022-09-13T20:46:31.341Z,99.90
2022-09-13T20:48:58.567Z,99.90
2022-09-13T20:51:25.670Z,99.90
2022-09-13T20:53:57.976Z,99.90
2022-09-13T20:56:24.834Z,99.90
2022-09-13T20:58:57.672Z,99.90
2022-09-13T21:01:25.054Z,99.90
2022-09-13T21:03:54.286Z,99.90
2022-09-13T21:06:23.387Z,99.90
2022-09-13T21:08:50.772Z,99.90
2022-09-13T21:11:30.383Z,99.90
2022-09-13T21:14:09.546Z,99.90
2022-09-13T21:16:39.129Z,99.90
2022-09-13T21:19:06.529Z,99.90
2022-09-13T21:21:37.736Z,99.90
2022-09-13T21:24:05.875Z,99.90
2022-09-13T21:26:33.211Z,99.90
2022-09-13T21:29:00.417Z,99.90
2022-09-13T21:31:29.972Z,99.90
2022-09-13T21:33:59.400Z,99.90
2022-09-13T21:36:27.372Z,99.90
2022-09-13T21:38:55.913Z,99.90
2022-09-13T21:41:24.844Z,99.90
2022-09-13T21:43:51.912Z,99.90
2022-09-13T21:46:21.027Z,99.90
2022-09-13T21:48:52.836Z,99.90
2022-09-13T21:51:25.940Z,99.90
2022-09-13T21:53:58.663Z,99.90
2022-09-13T21:56:29.796Z,99.90
2022-09-13T21:58:59.399Z,99.90
2022-09-13T22:01:28.381Z,99.90
2022-09-13T22:03:55.457Z,99.90
2022-09-13T22:06:22.954Z,99.90
2022-09-13T22:08:57.950Z,99.90
2022-09-13T22:11:27.710Z,99.90
2022-09-13T22:13:55.745Z,99.90
2022-09-13T22:16:28.752Z,99.90
2022-09-13T22:19:05.446Z,99.90
2022-09-13T22:21:37.668Z,99.90
2022-09-13T22:24:06.062Z,99.90
2022-09-13T22:26:35.375Z,99.90
2022-09-13T22:29:02.660Z,99.90
2022-09-13T22:31:31.496Z,99.90
2022-09-13T22:33:59.859Z,99.90
2022-09-13T22:36:26.939Z,99.90
2022-09-13T22:38:55.174Z,99.90
2022-09-13T22:41:26.072Z,99.90
2022-09-13T22:43:52.820Z,99.90
2022-09-13T22:46:22.479Z,99.90
2022-09-13T22:48:50.082Z,99.90
2022-09-13T22:51:18.239Z,99.90
2022-09-13T22:53:47.071Z,99.90
2022-09-13T22:56:16.773Z,99.90
2022-09-13T22:58:44.197Z,99.90
2022-09-13T23:01:19.947Z,99.90
2022-09-13T23:03:47.739Z,99.90
2022-09-13T23:06:16.121Z,99.90
2022-09-13T23:08:42.900Z,99.90
2022-09-13T23:11:21.142Z,99.90
2022-09-13T23:13:49.050Z,99.90
2022-09-13T23:16:19.399Z,99.90
2022-09-13T23:18:46.560Z,99.90
2022-09-13T23:21:13.316Z,99.90
2022-09-13T23:23:40.368Z,99.90
2022-09-13T23:26:12.670Z,99.90
2022-09-13T23:28:39.603Z,99.90
2022-09-13T23:31:14.685Z,99.90
2022-09-13T23:33:43.752Z,99.90
2022-09-13T23:36:12.132Z,99.90
2022-09-13T23:38:39.825Z,99.90
2022-09-13T23:41:07.552Z,99.90
2022-09-13T23:43:34.504Z,99.90
2022-09-13T23:46:01.330Z,99.90
2022-09-13T23:48:28.416Z,99.90
2022-09-13T23:51:03.526Z,99.90
2022-09-13T23:53:30.625Z,99.90
2022-09-13T23:55:57.915Z,99.90
2022-09-13T23:58:25.136Z,99.90
